createdAt,value
2023-01-20T00:01:24.023Z,1.80
2023-01-20T00:03:53.724Z,1.80
2023-01-20T00:06:21.953Z,1.80
2023-01-20T00:08:52.334Z,1.80
2023-01-20T00:11:21.167Z,1.70
2023-01-20T00:13:54.051Z,1.70
2023-01-20T00:16:22.456Z,1.90
2023-01-20T00:18:50.500Z,1.80
2023-01-20T00:21:18.770Z,1.80
2023-01-20T00:23:48.011Z,1.70
2023-01-20T00:26:17.691Z,1.80
2023-01-20T00:28:46.145Z,1.70
2023-01-20T00:31:18.022Z,1.70
2023-01-20T00:33:47.203Z,1.80
2023-01-20T00:36:16.643Z,1.70
2023-01-20T00:38:44.960Z,1.60
2023-01-20T00:41:13.339Z,1.60
2023-01-20T00:43:41.453Z,1.70
2023-01-20T00:46:09.847Z,1.70
2023-01-20T00:48:39.552Z,1.70
2023-01-20T00:51:09.137Z,1.60
2023-01-20T00:53:37.781Z,1.70
2023-01-20T00:56:06.517Z,1.70
2023-01-20T00:58:34.584Z,1.70
2023-01-20T01:01:02.784Z,1.60
2023-01-20T01:03:31.459Z,1.60
2023-01-20T01:06:09.479Z,1.50
2023-01-20T01:08:37.619Z,1.50
2023-01-20T01:11:06.465Z,1.50
2023-01-20T01:13:35.172Z,1.60
2023-01-20T01:16:03.271Z,1.50
2023-01-20T01:18:31.342Z,1.50
2023-01-20T01:21:00.416Z,1.50
2023-01-20T01:23:29.753Z,1.50
2023-01-20T01:25:57.767Z,1.50
2023-01-20T01:28:25.831Z,1.50
2023-01-20T01:30:53.888Z,1.40
2023-01-20T01:33:21.927Z,1.50
2023-01-20T01:35:56.524Z,1.50
2023-01-20T01:38:25.046Z,1.50
2023-01-20T01:40:55.703Z,1.50
2023-01-20T01:43:25.716Z,1.50
2023-01-20T01:45:54.311Z,1.40
2023-01-20T01:48:24.414Z,1.30
2023-01-20T01:50:56.094Z,1.30
2023-01-20T01:53:24.603Z,1.30
2023-01-20T01:55:58.134Z,1.30
2023-01-20T01:58:30.998Z,1.30
2023-01-20T02:00:59.337Z,1.30
2023-01-20T02:03:29.991Z,1.20
2023-01-20T02:05:58.847Z,1.30
2023-01-20T02:08:27.187Z,1.30
2023-01-20T02:10:56.583Z,1.30
2023-01-20T02:13:24.899Z,1.40
2023-01-20T02:15:59.621Z,1.30
2023-01-20T02:18:43.244Z,1.30
2023-01-20T02:21:47.704Z,1.30
2023-01-20T02:24:51.929Z,1.30
2023-01-20T02:27:38.910Z,1.30
2023-01-20T02:30:22.460Z,1.20
2023-01-20T02:32:58.533Z,1.20
2023-01-20T02:35:34.584Z,1.20
2023-01-20T02:38:15.292Z,1.20
2023-01-20T02:40:51.284Z,1.20
2023-01-20T02:43:24.485Z,1.30
2023-01-20T02:46:00.828Z,1.30
2023-01-20T02:48:36.187Z,1.20
2023-01-20T02:51:10.288Z,1.30
2023-01-20T02:53:43.251Z,1.20
2023-01-20T02:56:13.605Z,1.20
2023-01-20T02:58:47.265Z,1.30
2023-01-20T03:01:20.256Z,1.20
2023-01-20T03:03:53.535Z,1.20
2023-01-20T03:06:26.288Z,1.20
2023-01-20T03:08:56.692Z,1.20
2023-01-20T03:11:24.752Z,1.30
2023-01-20T03:13:59.305Z,1.20
2023-01-20T03:16:28.980Z,1.20
2023-01-20T03:18:58.521Z,1.20
2023-01-20T03:21:26.588Z,1.30
2023-01-20T03:23:56.742Z,1.30
2023-01-20T03:26:25.084Z,1.30
2023-01-20T03:28:54.559Z,1.30
2023-01-20T03:31:27.496Z,1.20
2023-01-20T03:33:59.715Z,1.20
2023-01-20T03:36:31.003Z,1.30
2023-01-20T03:39:00.487Z,1.30
2023-01-20T03:41:36.517Z,1.30
2023-01-20T03:44:12.442Z,1.30
2023-01-20T03:46:45.875Z,1.30
2023-01-20T03:49:21.936Z,1.30
2023-01-20T03:51:59.555Z,1.30
2023-01-20T03:54:32.162Z,1.20
2023-01-20T03:57:04.274Z,1.20
2023-01-20T03:59:35.238Z,1.20
2023-01-20T04:02:05.891Z,1.30
2023-01-20T04:04:39.622Z,1.30
2023-01-20T04:07:09.097Z,1.30
2023-01-20T04:09:41.978Z,1.30
2023-01-20T04:12:10.404Z,1.30
2023-01-20T04:14:38.467Z,1.30
2023-01-20T04:17:07.786Z,1.40
2023-01-20T04:19:37.204Z,1.40
2023-01-20T04:22:10.437Z,1.50
2023-01-20T04:24:43.187Z,1.40
2023-01-20T04:27:11.267Z,1.30
2023-01-20T04:29:41.399Z,1.30
2023-01-20T04:32:11.761Z,1.40
2023-01-20T04:34:41.306Z,1.40
2023-01-20T04:37:09.297Z,1.40
2023-01-20T04:39:37.292Z,1.40
2023-01-20T04:42:05.504Z,1.40
2023-01-20T04:44:33.537Z,1.40
2023-01-20T04:47:01.547Z,1.30
2023-01-20T04:49:29.574Z,1.30
2023-01-20T04:51:58.912Z,1.30
2023-01-20T04:54:26.940Z,1.30
2023-01-20T04:56:54.947Z,1.30
2023-01-20T04:59:23.066Z,1.30
2023-01-20T05:01:51.187Z,1.40
2023-01-20T05:04:19.319Z,1.40
2023-01-20T05:06:47.334Z,1.40
2023-01-20T05:09:17.805Z,1.40
2023-01-20T05:11:45.967Z,1.50
2023-01-20T05:14:14.551Z,1.40
2023-01-20T05:16:42.883Z,1.40
2023-01-20T05:19:13.005Z,1.40
2023-01-20T05:21:42.511Z,1.40
2023-01-20T05:24:11.020Z,1.40
2023-01-20T05:26:40.373Z,1.40
2023-01-20T05:29:09.195Z,1.40
2023-01-20T05:31:38.660Z,1.40
2023-01-20T05:34:06.708Z,1.40
2023-01-20T05:36:35.008Z,1.50
2023-01-20T05:39:03.096Z,1.50
2023-01-20T05:41:31.218Z,1.50
2023-01-20T05:44:00.638Z,1.50
2023-01-20T05:46:28.761Z,1.50
2023-01-20T05:48:57.096Z,1.50
2023-01-20T05:51:25.295Z,1.50
2023-01-20T05:53:53.708Z,1.50
2023-01-20T05:56:21.754Z,1.40
2023-01-20T05:58:50.631Z,1.40
2023-01-20T06:01:20.106Z,1.50
2023-01-20T06:03:48.162Z,1.40
2023-01-20T06:06:18.285Z,1.50
2023-01-20T06:08:47.001Z,1.50
2023-01-20T06:11:15.212Z,1.60
2023-01-20T06:13:43.425Z,1.60
2023-01-20T06:16:11.451Z,1.70
2023-01-20T06:18:41.020Z,1.60
2023-01-20T06:21:09.107Z,1.60
2023-01-20T06:23:37.120Z,1.70
2023-01-20T06:26:06.860Z,1.70
2023-01-20T06:28:35.846Z,1.70
2023-01-20T06:31:05.884Z,1.70
2023-01-20T06:33:34.794Z,1.60
2023-01-20T06:36:04.849Z,1.70
2023-01-20T06:38:34.326Z,1.70
2023-01-20T06:41:04.679Z,1.60
2023-01-20T06:43:33.954Z,1.60
2023-01-20T06:46:02.771Z,1.60
2023-01-20T06:48:31.573Z,1.60
2023-01-20T06:51:04.723Z,1.60
2023-01-20T06:53:32.838Z,1.60
2023-01-20T06:56:02.073Z,1.60
2023-01-20T06:58:32.246Z,1.50
2023-01-20T07:01:06.580Z,1.60
2023-01-20T07:03:34.638Z,1.70
2023-01-20T07:06:06.587Z,1.80
2023-01-20T07:08:34.578Z,1.70
2023-01-20T07:11:02.567Z,1.70
2023-01-20T07:13:30.538Z,1.70
2023-01-20T07:15:58.579Z,1.70
2023-01-20T07:18:26.619Z,1.70
2023-01-20T07:20:55.430Z,1.70
2023-01-20T07:23:25.186Z,1.70
2023-01-20T07:25:59.301Z,1.60
2023-01-20T07:28:27.547Z,1.70
2023-01-20T07:30:55.712Z,1.60
2023-01-20T07:33:24.120Z,1.60
2023-01-20T07:35:54.126Z,1.70
2023-01-20T07:38:22.154Z,1.60
2023-01-20T07:40:51.589Z,1.60
2023-01-20T07:43:19.606Z,1.70
2023-01-20T07:45:47.650Z,1.60
2023-01-20T07:48:15.710Z,1.70
2023-01-20T07:50:43.726Z,1.70
2023-01-20T07:53:11.781Z,1.80
2023-01-20T07:55:39.778Z,1.80
2023-01-20T07:58:09.138Z,1.80
2023-01-20T08:00:37.228Z,1.80
2023-01-20T08:03:05.270Z,1.80
2023-01-20T08:05:33.834Z,1.80
2023-01-20T08:08:01.856Z,1.80
2023-01-20T08:10:30.007Z,1.80
2023-01-20T08:12:58.840Z,1.80
2023-01-20T08:15:28.249Z,1.80
2023-01-20T08:17:56.683Z,1.80
2023-01-20T08:20:24.799Z,1.80
2023-01-20T08:22:52.842Z,1.80
2023-01-20T08:25:20.859Z,1.90
2023-01-20T08:27:50.196Z,1.90
2023-01-20T08:30:18.859Z,1.90
2023-01-20T08:32:48.257Z,1.90
2023-01-20T08:35:16.792Z,1.90
2023-01-20T08:37:45.021Z,1.90
2023-01-20T08:40:13.742Z,1.90
2023-01-20T08:42:41.812Z,2.00
2023-01-20T08:45:10.788Z,1.90
2023-01-20T08:47:39.409Z,1.90
2023-01-20T08:50:10.335Z,2.00
2023-01-20T08:52:38.457Z,2.00
2023-01-20T08:55:07.334Z,2.10
2023-01-20T08:57:35.548Z,2.20
2023-01-20T09:00:05.836Z,2.30
2023-01-20T09:02:33.942Z,2.30
2023-01-20T09:05:02.084Z,2.30
2023-01-20T09:07:31.652Z,2.30
2023-01-20T09:09:59.688Z,2.30
2023-01-20T09:12:27.712Z,2.30
2023-01-20T09:14:55.723Z,2.30
2023-01-20T09:17:23.782Z,2.30
2023-01-20T09:19:51.818Z,2.50
2023-01-20T09:22:19.870Z,2.50
2023-01-20T09:24:49.223Z,2.50
2023-01-20T09:27:17.744Z,2.50
2023-01-20T09:29:45.751Z,2.50
2023-01-20T09:32:15.494Z,2.40
2023-01-20T09:34:43.510Z,2.60
2023-01-20T09:37:28.895Z,2.60
2023-01-20T09:40:15.748Z,2.60
2023-01-20T09:43:18.883Z,2.60
2023-01-20T09:45:53.894Z,2.60
2023-01-20T09:48:48.993Z,2.70
2023-01-20T09:51:40.459Z,2.70
2023-01-20T09:54:15.714Z,2.80
2023-01-20T09:56:48.980Z,2.70
2023-01-20T09:59:23.727Z,2.70
2023-01-20T10:01:53.848Z,2.80
2023-01-20T10:04:26.832Z,2.70
2023-01-20T10:06:59.516Z,2.70
2023-01-20T10:09:33.788Z,2.90
2023-01-20T10:12:10.333Z,2.90
2023-01-20T10:14:42.867Z,2.90
2023-01-20T10:17:17.272Z,3.00
2023-01-20T10:19:50.162Z,3.10
2023-01-20T10:22:22.727Z,3.10
2023-01-20T10:24:55.472Z,3.00
2023-01-20T10:27:28.927Z,3.00
2023-01-20T10:30:04.850Z,3.10
2023-01-20T10:32:36.581Z,3.10
2023-01-20T10:35:15.324Z,3.00
2023-01-20T10:37:43.814Z,3.00
2023-01-20T10:40:20.477Z,2.90
2023-01-20T10:42:54.290Z,3.00
2023-01-20T10:45:31.187Z,3.00
2023-01-20T10:48:09.961Z,3.00
2023-01-20T10:50:52.902Z,3.00
2023-01-20T10:53:50.534Z,3.10
2023-01-20T10:56:35.924Z,3.20
2023-01-20T10:59:10.035Z,3.30
2023-01-20T11:01:38.272Z,3.20
2023-01-20T11:04:06.492Z,3.30
2023-01-20T11:06:34.616Z,3.40
2023-01-20T11:09:19.736Z,3.40
2023-01-20T11:11:48.547Z,3.50
2023-01-20T11:14:18.166Z,3.50
2023-01-20T11:16:48.233Z,3.60
2023-01-20T11:19:16.294Z,3.70
2023-01-20T11:21:44.355Z,3.80
2023-01-20T11:24:39.159Z,3.90
2023-01-20T11:27:11.922Z,3.90
2023-01-20T11:29:43.631Z,4.00
2023-01-20T11:32:33.524Z,4.10
2023-01-20T11:35:03.158Z,4.30
2023-01-20T11:37:38.560Z,4.50
2023-01-20T11:40:23.255Z,4.70
2023-01-20T11:42:52.637Z,4.80
2023-01-20T11:45:28.956Z,5.00
2023-01-20T11:48:03.270Z,5.30
2023-01-20T11:50:39.699Z,5.40
2023-01-20T11:53:31.541Z,5.40
2023-01-20T11:56:02.410Z,5.20
2023-01-20T11:58:34.055Z,5.10
2023-01-20T12:01:06.047Z,5.00
2023-01-20T12:03:55.776Z,4.90
2023-01-20T12:06:27.083Z,4.80
2023-01-20T12:08:59.580Z,4.90
2023-01-20T12:11:32.096Z,4.90
2023-01-20T12:14:23.019Z,4.90
2023-01-20T12:17:16.871Z,4.80
2023-01-20T12:20:10.206Z,4.70
2023-01-20T12:22:47.075Z,4.50
2023-01-20T12:25:21.992Z,4.40
2023-01-20T12:27:55.204Z,4.30
2023-01-20T12:30:43.270Z,4.20
2023-01-20T12:33:20.605Z,4.20
2023-01-20T12:36:06.474Z,4.30
2023-01-20T12:38:41.607Z,4.30
2023-01-20T12:41:17.862Z,4.40
2023-01-20T12:43:57.423Z,4.50
2023-01-20T12:46:38.687Z,4.50
2023-01-20T12:49:33.188Z,4.50
2023-01-20T12:52:27.201Z,4.60
2023-01-20T12:55:17.012Z,4.50
2023-01-20T12:57:59.862Z,4.40
2023-01-20T13:00:49.226Z,4.40
2023-01-20T13:03:44.073Z,4.40
2023-01-20T13:06:50.660Z,4.40
2023-01-20T13:09:30.140Z,4.40
2023-01-20T13:12:10.399Z,4.40
2023-01-20T13:14:43.719Z,4.30
2023-01-20T13:17:20.223Z,4.30
2023-01-20T13:19:49.946Z,4.20
2023-01-20T13:22:21.238Z,4.20
2023-01-20T13:24:52.634Z,4.20
2023-01-20T13:27:26.354Z,4.20
2023-01-20T13:29:56.843Z,4.00
2023-01-20T13:32:34.015Z,4.00
2023-01-20T13:35:03.074Z,4.00
2023-01-20T13:37:35.307Z,3.90
2023-01-20T13:40:03.629Z,3.90
2023-01-20T13:42:50.222Z,3.80
2023-01-20T13:45:26.322Z,3.70
2023-01-20T13:48:03.522Z,3.60
2023-01-20T13:50:35.180Z,3.70
2023-01-20T13:53:16.521Z,3.70
2023-01-20T13:55:56.178Z,3.70
2023-01-20T13:58:25.516Z,3.80
2023-01-20T14:00:55.448Z,3.90
2023-01-20T14:03:27.773Z,3.80
2023-01-20T14:06:02.223Z,3.80
2023-01-20T14:08:38.151Z,3.80
2023-01-20T14:11:12.923Z,3.80
2023-01-20T14:13:41.972Z,3.80
2023-01-20T14:16:20.784Z,3.80
2023-01-20T14:18:49.753Z,3.90
2023-01-20T14:21:21.115Z,3.90
2023-01-20T14:23:51.731Z,4.00
2023-01-20T14:26:24.280Z,4.00
2023-01-20T14:28:53.910Z,3.90
2023-01-20T14:31:35.182Z,3.90
2023-01-20T14:34:19.591Z,4.00
2023-01-20T14:36:48.225Z,4.10
2023-01-20T14:39:22.610Z,4.20
2023-01-20T14:41:52.755Z,4.20
2023-01-20T14:44:22.445Z,4.10
2023-01-20T14:46:52.950Z,4.10
2023-01-20T14:49:23.140Z,4.10
2023-01-20T14:51:52.588Z,4.00
2023-01-20T14:54:46.579Z,4.00
2023-01-20T14:57:36.015Z,4.00
2023-01-20T15:00:17.984Z,3.80
2023-01-20T15:03:01.379Z,3.80
2023-01-20T15:05:39.199Z,3.70
2023-01-20T15:08:26.045Z,3.70
2023-01-20T15:11:21.753Z,3.60
2023-01-20T15:14:10.134Z,3.60
2023-01-20T15:16:51.991Z,3.70
2023-01-20T15:19:33.781Z,3.70
2023-01-20T15:22:24.496Z,3.70
2023-01-20T15:24:53.036Z,3.60
2023-01-20T15:27:26.723Z,3.50
2023-01-20T15:30:19.373Z,3.50
2023-01-20T15:32:49.186Z,3.50
2023-01-20T15:35:19.922Z,3.50
2023-01-20T15:37:48.207Z,3.40
2023-01-20T15:40:18.449Z,3.40
2023-01-20T15:42:48.469Z,3.40
2023-01-20T15:45:17.635Z,3.40
2023-01-20T15:47:46.790Z,3.50
2023-01-20T15:50:20.596Z,3.50
2023-01-20T15:52:48.855Z,3.50
2023-01-20T15:55:18.136Z,3.50
2023-01-20T15:57:51.239Z,3.40
2023-01-20T16:00:21.190Z,3.30
2023-01-20T16:02:49.207Z,3.30
2023-01-20T16:05:18.073Z,3.20
2023-01-20T16:07:47.570Z,3.20
2023-01-20T16:10:18.210Z,3.20
2023-01-20T16:12:48.180Z,3.10
2023-01-20T16:15:17.903Z,3.10
2023-01-20T16:17:46.275Z,3.00
2023-01-20T16:20:22.865Z,3.00
2023-01-20T16:22:51.539Z,3.00
2023-01-20T16:25:19.659Z,3.00
2023-01-20T16:27:49.007Z,3.00
2023-01-20T16:30:19.979Z,3.00
2023-01-20T16:32:48.603Z,3.00
2023-01-20T16:35:17.877Z,3.00
2023-01-20T16:37:47.441Z,2.90
2023-01-20T16:40:17.467Z,2.90
2023-01-20T16:42:45.756Z,2.80
2023-01-20T16:45:29.963Z,2.80
2023-01-20T16:47:58.185Z,2.80
2023-01-20T16:50:28.363Z,2.80
2023-01-20T16:52:56.540Z,2.80
2023-01-20T16:55:25.450Z,2.80
2023-01-20T16:57:54.057Z,2.80
2023-01-20T17:00:22.968Z,2.70
2023-01-20T17:02:53.988Z,2.80
2023-01-20T17:05:25.367Z,2.80
2023-01-20T17:07:54.605Z,2.90
2023-01-20T17:10:22.803Z,2.90
2023-01-20T17:12:53.111Z,2.80
2023-01-20T17:15:21.435Z,2.80
2023-01-20T17:17:50.229Z,2.80
2023-01-20T17:20:19.951Z,2.80
2023-01-20T17:22:48.121Z,2.80
2023-01-20T17:25:18.116Z,2.70
2023-01-20T17:27:46.276Z,2.80
2023-01-20T17:30:15.509Z,2.80
2023-01-20T17:32:48.195Z,2.70
2023-01-20T17:35:17.249Z,2.70
2023-01-20T17:37:46.870Z,2.70
2023-01-20T17:40:15.995Z,2.70
2023-01-20T17:42:44.614Z,2.70
2023-01-20T17:45:13.176Z,2.70
2023-01-20T17:47:41.153Z,2.70
2023-01-20T17:50:10.163Z,2.70
2023-01-20T17:52:38.256Z,2.70
2023-01-20T17:55:08.595Z,2.70
2023-01-20T17:57:36.589Z,2.70
2023-01-20T18:00:06.429Z,2.70
2023-01-20T18:02:35.022Z,2.60
2023-01-20T18:05:03.104Z,2.60
2023-01-20T18:07:31.158Z,2.60
2023-01-20T18:09:59.163Z,2.60
2023-01-20T18:12:28.611Z,2.70
2023-01-20T18:14:58.575Z,2.70
2023-01-20T18:17:26.602Z,2.70
2023-01-20T18:19:54.773Z,2.60
2023-01-20T18:22:22.799Z,2.60
2023-01-20T18:24:50.810Z,2.60
2023-01-20T18:27:19.544Z,2.60
2023-01-20T18:29:51.174Z,2.70
2023-01-20T18:32:19.237Z,2.70
2023-01-20T18:34:47.231Z,2.70
2023-01-20T18:37:15.291Z,2.80
2023-01-20T18:39:43.904Z,2.70
2023-01-20T18:42:12.427Z,2.60
2023-01-20T18:44:40.419Z,2.60
2023-01-20T18:47:09.815Z,2.60
2023-01-20T18:49:37.871Z,2.60
2023-01-20T18:52:06.291Z,2.60
2023-01-20T18:54:37.123Z,2.60
2023-01-20T18:57:07.342Z,2.60
2023-01-20T18:59:36.799Z,2.60
2023-01-20T19:02:04.821Z,2.60
2023-01-20T19:04:35.654Z,2.60
2023-01-20T19:07:03.682Z,2.60
2023-01-20T19:09:31.713Z,2.70
2023-01-20T19:11:59.749Z,2.70
2023-01-20T19:14:27.802Z,2.80
2023-01-20T19:16:55.910Z,2.70
2023-01-20T19:19:24.025Z,2.60
2023-01-20T19:21:53.456Z,2.50
2023-01-20T19:24:22.383Z,2.50
2023-01-20T19:26:50.444Z,2.50
2023-01-20T19:29:18.894Z,2.40
2023-01-20T19:31:47.297Z,2.40
2023-01-20T19:34:16.005Z,2.40
2023-01-20T19:36:44.035Z,2.50
2023-01-20T19:39:13.530Z,2.50
2023-01-20T19:41:41.745Z,2.70
2023-01-20T19:44:13.373Z,2.80
2023-01-20T19:46:41.492Z,2.70
2023-01-20T19:49:11.569Z,2.70
2023-01-20T19:51:40.142Z,2.70
2023-01-20T19:54:08.287Z,2.70
2023-01-20T19:56:37.667Z,2.60
2023-01-20T19:59:06.881Z,2.40
2023-01-20T20:01:36.837Z,2.40
2023-01-20T20:04:06.786Z,2.30
2023-01-20T20:06:36.231Z,2.30
2023-01-20T20:09:06.409Z,2.30
2023-01-20T20:11:35.363Z,2.30
2023-01-20T20:14:06.135Z,2.30
2023-01-20T20:16:36.025Z,2.50
2023-01-20T20:19:04.913Z,2.50
2023-01-20T20:21:32.970Z,2.70
2023-01-20T20:24:05.102Z,2.70
2023-01-20T20:26:35.076Z,2.70
2023-01-20T20:29:06.306Z,2.70
2023-01-20T20:31:38.049Z,2.50
2023-01-20T20:34:07.344Z,2.60
2023-01-20T20:36:36.137Z,2.50
2023-01-20T20:39:05.521Z,2.40
2023-01-20T20:41:35.300Z,2.50
2023-01-20T20:44:04.975Z,2.50
2023-01-20T20:46:33.136Z,2.40
2023-01-20T20:49:02.160Z,2.30
2023-01-20T20:51:33.865Z,2.30
2023-01-20T20:54:04.658Z,2.20
2023-01-20T20:56:35.671Z,2.20
2023-01-20T20:59:07.103Z,2.10
2023-01-20T21:01:35.741Z,2.30
2023-01-20T21:04:04.257Z,2.40
2023-01-20T21:06:33.234Z,2.30
2023-01-20T21:09:01.661Z,2.40
2023-01-20T21:11:30.164Z,2.30
2023-01-20T21:13:58.589Z,2.30
2023-01-20T21:16:28.490Z,2.50
2023-01-20T21:18:57.648Z,2.40
2023-01-20T21:21:26.169Z,2.40
2023-01-20T21:23:55.991Z,2.30
2023-01-20T21:26:28.144Z,2.30
2023-01-20T21:29:00.144Z,2.20
2023-01-20T21:31:30.879Z,2.30
2023-01-20T21:34:00.329Z,2.20
2023-01-20T21:36:29.750Z,2.20
2023-01-20T21:38:58.709Z,2.40
2023-01-20T21:41:26.790Z,2.40
2023-01-20T21:44:12.298Z,2.30
2023-01-20T21:46:41.776Z,2.30
2023-01-20T21:49:27.603Z,2.40
2023-01-20T21:52:13.502Z,2.30
2023-01-20T21:54:41.811Z,2.40
2023-01-20T21:57:10.290Z,2.40
2023-01-20T21:59:38.402Z,2.50
2023-01-20T22:02:08.754Z,2.30
2023-01-20T22:04:36.855Z,2.30
2023-01-20T22:07:04.865Z,2.20
2023-01-20T22:09:33.386Z,2.20
2023-01-20T22:12:01.402Z,2.20
2023-01-20T22:14:29.487Z,2.30
2023-01-20T22:16:58.197Z,2.40
2023-01-20T22:19:28.114Z,2.40
2023-01-20T22:21:56.773Z,2.50
2023-01-20T22:24:24.997Z,2.40
2023-01-20T22:26:54.641Z,2.40
2023-01-20T22:29:25.366Z,2.50
2023-01-20T22:31:55.633Z,2.50
2023-01-20T22:34:25.908Z,2.50
2023-01-20T22:36:57.927Z,2.50
2023-01-20T22:39:25.995Z,2.50
2023-01-20T22:41:54.077Z,2.30
2023-01-20T22:44:22.153Z,2.20
2023-01-20T22:46:50.152Z,2.30
2023-01-20T22:49:18.374Z,2.40
2023-01-20T22:51:46.375Z,2.30
2023-01-20T22:54:15.738Z,2.30
2023-01-20T22:56:43.775Z,2.30
2023-01-20T22:59:13.347Z,2.30
2023-01-20T23:01:41.378Z,2.30
2023-01-20T23:04:10.727Z,2.30
2023-01-20T23:06:39.294Z,2.40
2023-01-20T23:09:09.515Z,2.30
2023-01-20T23:11:40.099Z,2.40
2023-01-20T23:14:10.694Z,2.30
2023-01-20T23:16:38.922Z,2.30
2023-01-20T23:19:07.033Z,2.20
2023-01-20T23:21:35.406Z,2.20
2023-01-20T23:24:03.453Z,2.20
2023-01-20T23:26:32.590Z,2.20
2023-01-20T23:29:02.002Z,2.20
2023-01-20T23:31:33.430Z,2.20
2023-01-20T23:34:01.575Z,2.20
2023-01-20T23:36:29.667Z,2.30
2023-01-20T23:38:58.016Z,2.30
2023-01-20T23:41:26.436Z,2.30
2023-01-20T23:43:54.452Z,2.30
2023-01-20T23:46:23.818Z,2.40
2023-01-20T23:48:51.855Z,2.60
2023-01-20T23:51:19.963Z,2.70
2023-01-20T23:53:48.060Z,2.80
2023-01-20T23:56:18.274Z,2.90
2023-01-20T23:58:46.478Z,2.70
